»·PEaware :: N704YA CAD4-KGEG

N704YA :: CAD4-KGEG

FLIGHT INFORMATION

Flight Status: Arrived
Operator: Privately registered:
United States
More flights under this callsign
Pilot: Wayne R. (17783)
Aircraft: CESSNA 152 AEROBAT
(C152)
More flights by this aircraft type
Origin: CAD4 Trail
Canada
Destination: KGEG Spokane Intl
United States
More flights between these airports :: More routes between these airports
Route:
File this flight plan on PilotEdge
Remarks:
Altitude:
(Current/Filed)
5,500ft
Speed:
(Current/Filed)
100kts
Departed: 20-Dec-20 02:41 PM
Arrived: 20-Dec-20 04:07 PM
Distance/Time
Traveled:
87nm/1:26
Distance/Time
To Go:
Arrived

Flight Plot

Page will automatically refresh every two minutes.

Flight plan parsing failed; only flown route is shown


Map Options




Map Legend


Flown Route
Filed Route
Departure Airport
Arrival Airport
Navaid (VOR, NDB)
Fix

Horizontal Profiles

Position Reports

Time Latitude Longitude Heading Altitude Ground
Speed
20-Dec-20 14:39 49.059418 -117.608938 10 1620ft 68kts
20-Dec-20 14:40 49.058148 -117.620324 167 2200ft 73kts
20-Dec-20 14:41 49.035961 -117.615380 181 2650ft 88kts
20-Dec-20 14:42 49.012224 -117.616361 146 2934ft 88kts
20-Dec-20 14:43 49.004098 -117.583398 68 3031ft 102kts
20-Dec-20 14:44 49.015875 -117.547433 70 3497ft 96kts
20-Dec-20 14:45 49.026483 -117.510516 74 3817ft 99kts
20-Dec-20 14:46 49.036122 -117.470290 76 3877ft 100kts
20-Dec-20 14:47 49.037774 -117.429221 106 3912ft 97kts
20-Dec-20 14:48 49.026194 -117.395137 137 3945ft 90kts
20-Dec-20 14:49 49.006121 -117.371790 143 4048ft 93kts
20-Dec-20 14:50 48.983184 -117.354404 160 4143ft 91kts
20-Dec-20 14:51 48.957567 -117.345910 177 4071ft 98kts
20-Dec-20 14:52 48.931228 -117.356741 195 3986ft 97kts
20-Dec-20 14:53 48.904550 -117.373063 197 3749ft 107kts
20-Dec-20 14:54 48.904550 -117.373063 197 3749ft 107kts
20-Dec-20 14:55 48.904550 -117.373063 197 3749ft 107kts
20-Dec-20 14:56 48.903333 -117.373602 196 3746ft 107kts
20-Dec-20 14:57 48.874809 -117.386309 209 3681ft 102kts
20-Dec-20 14:58 48.852471 -117.412648 217 3792ft 101kts
20-Dec-20 14:59 48.827894 -117.430407 208 4119ft 95kts
20-Dec-20 15:00 48.804928 -117.451303 184 4270ft 103kts
20-Dec-20 15:01 48.775545 -117.447626 168 4216ft 110kts
20-Dec-20 15:02 48.747788 -117.425084 149 3646ft 120kts
20-Dec-20 15:03 48.718361 -117.405687 164 3016ft 107kts
20-Dec-20 15:04 48.690898 -117.398497 195 3157ft 85kts
20-Dec-20 15:05 48.668038 -117.392577 158 3628ft 86kts
20-Dec-20 15:06 48.645625 -117.377349 157 4138ft 89kts
20-Dec-20 15:07 48.620707 -117.361437 171 4053ft 113kts
20-Dec-20 15:08 48.590579 -117.346986 165 2446ft 103kts
20-Dec-20 15:09 48.565376 -117.340973 126 2668ft 95kts
20-Dec-20 15:10 48.552050 -117.313135 126 3626ft 69kts
20-Dec-20 15:11 48.536753 -117.294967 155 4301ft 75kts
20-Dec-20 15:12 48.518506 -117.283060 186 5002ft 67kts
20-Dec-20 15:13 48.510168 -117.311846 260 5489ft 74kts
20-Dec-20 15:14 48.506055 -117.342823 248 6087ft 74kts
20-Dec-20 15:15 48.497766 -117.371489 226 6735ft 74kts
20-Dec-20 15:16 48.488025 -117.396331 239 7364ft 65kts
20-Dec-20 15:17 48.478658 -117.421262 244 7796ft 75kts
20-Dec-20 15:18 48.469250 -117.451603 242 7982ft 80kts
20-Dec-20 15:19 48.457110 -117.480155 238 8002ft 80kts
20-Dec-20 15:20 48.452590 -117.514101 267 7955ft 87kts
20-Dec-20 15:21 48.455614 -117.551327 269 8128ft 88kts
20-Dec-20 15:22 48.451480 -117.586441 238 8248ft 78kts
20-Dec-20 15:23 48.438039 -117.604193 189 8917ft 78kts
20-Dec-20 15:24 48.417124 -117.603327 200 9330ft 67kts
20-Dec-20 15:25 48.400388 -117.611445 225 9898ft 62kts
20-Dec-20 15:26 48.380550 -117.624328 208 9528ft 89kts
20-Dec-20 15:27 48.354488 -117.622582 193 9181ft 93kts
20-Dec-20 15:28 48.330892 -117.632064 209 8836ft 87kts
20-Dec-20 15:29 48.306111 -117.643292 209 8025ft 99kts
20-Dec-20 15:30 48.285248 -117.664460 213 7721ft 89kts
20-Dec-20 15:31 48.266386 -117.686085 212 7544ft 79kts
20-Dec-20 15:32 48.242903 -117.691087 189 7280ft 89kts
20-Dec-20 15:33 48.219212 -117.695215 208 6979ft 83kts
20-Dec-20 15:34 48.196902 -117.706182 201 6650ft 85kts
20-Dec-20 15:35 48.176122 -117.722631 212 6290ft 102kts
20-Dec-20 15:36 48.155467 -117.742924 219 6231ft 82kts
20-Dec-20 15:37 48.133675 -117.753254 193 6177ft 83kts
20-Dec-20 15:38 48.110359 -117.758596 197 6135ft 87kts
20-Dec-20 15:39 48.086519 -117.777474 218 5630ft 94kts
20-Dec-20 15:40 48.064239 -117.801051 216 5280ft 97kts
20-Dec-20 15:41 48.042192 -117.833008 234 4228ft 119kts
20-Dec-20 15:42 48.017222 -117.861667 207 3474ft 103kts
20-Dec-20 15:43 47.990151 -117.869087 172 3416ft 99kts
20-Dec-20 15:44 47.966989 -117.847375 151 3544ft 96kts
20-Dec-20 15:45 47.945770 -117.822938 132 3714ft 98kts
20-Dec-20 15:46 47.928591 -117.790022 125 3839ft 104kts
20-Dec-20 15:47 47.913100 -117.753977 134 3959ft 103kts
20-Dec-20 15:48 47.898150 -117.717717 115 4017ft 107kts
20-Dec-20 15:49 47.893249 -117.673558 77 3978ft 114kts
20-Dec-20 15:50 47.908926 -117.632212 61 4118ft 115kts
20-Dec-20 15:51 47.928770 -117.594791 45 3999ft 116kts
20-Dec-20 15:52 47.945373 -117.555730 70 4077ft 104kts
20-Dec-20 15:53 47.941859 -117.514120 122 3975ft 107kts
20-Dec-20 15:54 47.916915 -117.492406 174 3898ft 105kts
20-Dec-20 15:55 47.887592 -117.492009 177 3901ft 105kts
20-Dec-20 15:56 47.858221 -117.491093 182 3905ft 105kts
20-Dec-20 15:57 47.830812 -117.492982 187 3936ft 97kts
20-Dec-20 15:58 47.804089 -117.498726 170 3910ft 100kts
20-Dec-20 15:59 47.777312 -117.488361 176 3951ft 98kts
20-Dec-20 16:00 47.750060 -117.486674 186 3866ft 96kts
20-Dec-20 16:01 47.723351 -117.490005 185 3952ft 99kts
20-Dec-20 16:02 47.695426 -117.489756 183 3615ft 103kts
20-Dec-20 16:03 47.666804 -117.489810 182 3160ft 101kts
20-Dec-20 16:04 47.643454 -117.500705 221 2733ft 77kts
20-Dec-20 16:05 47.629992 -117.520180 221 2336ft 55kts
20-Dec-20 16:06 47.626265 -117.523229 144 2339ft 8kts
20-Dec-20 16:07 47.622676 -117.525525 208 2352ft 14kts
20-Dec-20 16:08 47.622386 -117.525611 90 2352ft 0kts

Navigation Log

Ident Type
Flight plan parsing failed, navigation log unavailable